Nogales International Airport Nogales US
ICAO: KOLS
IATA: OLS
Category: Medium
Scheduled Services: No

Elevation: 3955 ft
TransAlt. 18000 ft.

Airport Communications:
TUCSON APP DEP:125.1
ASOS:121.125
PRESCOTT RDO:122.4
CTAF/UNICOM:122.8

KOLS Zoom In..

Runways:

(A) RW 03 length 7200 ft width 100 ft
---- / hdg 34

(B) RW 21 length 7200 ft width 100 ft
---- / hdg 214

Location; KOLS
Day. 20 / Time. 20.27 Zulu
* Altimeter: 30.07
* Temperature: 22° c. 71.6°f.
* Wind from: 170° Speed 05 kn.
Dewpoint: 19° c.
Visibility: 3 Statute Miles.
Clouds: Broken 4400 ft.
Clouds: Broken 7000 ft.
Clouds: Overcast 8500 ft.

KOLS 202027Z AUTO 17005KT 3SM -TSRA BKN044 BKN070 OVC085 22/19 A3007 RMK AO2 PK WND 06026/1958 LTG DSNT W-N PRESFR P0049 T02220194


Wind From 170°
Speed 05 kn.

 
 
jpsmedia.com for Web Design worldairports.se 2018   terms of use